Time;durP1;ratioP1;P1;durP2;ratioP2;P2;SDS_P1;SDS_P2;PMS_P1;PMS_P2;Temp;Humidity;BMP_temperature;BMP_pressure;BME280_temperature;BME280_humidity;BME280_pressure;Samples;Min_cycle;Max_cycle;Signal;HPM_P1;HPM_P2
2021/03/08 00:01:52;;;;;;;4.57;0.80;;;;;;;-2.57;60.31;96874.03;10677769;27;20057;-52
2021/03/08 00:06:54;;;;;;;3.40;0.80;;;;;;;-2.68;60.13;96868.88;10659442;27;20053;-48
2021/03/08 00:11:56;;;;;;;5.20;1.00;;;;;;;-2.74;60.48;96871.91;10676960;27;20061;-49
2021/03/08 00:16:58;;;;;;;5.32;0.60;;;;;;;-2.71;60.81;96869.97;10676708;27;20074;-49
2021/03/08 00:22:00;;;;;;;2.35;0.70;;;;;;;-2.72;60.57;96870.06;10678921;27;20050;-48
2021/03/08 00:27:02;;;;;;;1.38;0.50;;;;;;;-2.80;60.03;96868.09;10675774;27;20050;-51
2021/03/08 00:32:06;;;;;;;1.38;0.57;;;;;;;-2.94;59.82;96866.56;10675652;27;20061;-51
2021/03/08 00:37:07;;;;;;;4.80;0.70;;;;;;;-3.01;59.33;96860.25;10657504;27;20046;-53
2021/03/08 00:42:10;;;;;;;2.17;0.65;;;;;;;-3.06;59.77;96862.34;10658476;27;20050;-49
2021/03/08 00:47:11;;;;;;;3.25;0.88;;;;;;;-3.05;59.75;96863.97;10665784;27;20077;-57
2021/03/08 00:52:13;;;;;;;2.47;0.95;;;;;;;-3.08;60.32;96859.91;10674708;27;20089;-52
2021/03/08 00:57:16;;;;;;;4.63;0.60;;;;;;;-3.06;60.49;96854.63;10675082;27;20050;-50
2021/03/08 01:02:22;;;;;;;2.33;0.70;;;;;;;-3.04;60.49;96858.72;10659420;27;20133;-51
2021/03/08 01:07:27;;;;;;;1.88;0.50;;;;;;;-2.95;60.49;96843.56;10673825;27;20080;-50
2021/03/08 01:12:31;;;;;;;2.13;0.70;;;;;;;-2.86;60.51;96843.66;10656141;27;20081;-52
2021/03/08 01:17:32;;;;;;;2.08;0.70;;;;;;;-2.74;60.71;96843.63;10674091;27;20053;-50
2021/03/08 01:22:34;;;;;;;2.58;0.63;;;;;;;-2.65;61.35;96840.34;10674258;27;20138;-49
2021/03/08 01:27:36;;;;;;;3.53;0.60;;;;;;;-2.54;61.16;96840.34;10673597;27;20043;-48
2021/03/08 01:32:38;;;;;;;2.80;0.50;;;;;;;-2.55;60.83;96847.25;10674164;27;20054;-49
2021/03/08 01:37:40;;;;;;;2.00;0.55;;;;;;;-2.56;60.90;96847.38;10676727;27;20043;-48
2021/03/08 01:42:44;;;;;;;3.08;0.70;;;;;;;-2.55;60.65;96846.44;10679219;27;20398;-51
2021/03/08 01:47:47;;;;;;;3.33;1.17;;;;;;;-2.55;60.71;96857.53;10673128;27;20563;-50
2021/03/08 01:52:50;;;;;;;2.45;0.70;;;;;;;-2.56;60.76;96849.94;10673163;27;20375;-51
2021/03/08 01:57:53;;;;;;;;;;;;;;;-2.55;60.51;96844.69;10672912;27;20051;-51
2021/03/08 02:02:55;;;;;;;3.08;1.42;;;;;;;-2.57;60.25;96843.16;10676168;27;20026;-65
2021/03/08 02:07:57;;;;;;;3.03;0.80;;;;;;;-2.57;60.09;96843.97;10682485;27;20470;-51
2021/03/08 02:13:11;;;;;;;2.67;0.70;;;;;;;-2.57;60.00;96843.16;10678372;27;20053;-56
2021/03/08 02:18:18;;;;;;;;;;;;;;;-2.55;59.75;96847.25;10628387;27;20074;-49
2021/03/08 02:23:55;;;;;;;2.13;0.60;;;;;;;-2.55;59.73;96839.53;10628604;27;20355;-50
2021/03/08 02:29:38;;;;;;;2.88;1.30;;;;;;;-2.49;59.73;96845.97;10627988;27;20043;-51
2021/03/08 02:34:47;;;;;;;3.67;0.90;;;;;;;-2.48;60.02;96842.44;10620457;27;20059;-52
2021/03/08 02:39:53;;;;;;;1.98;0.65;;;;;;;-2.38;60.31;96843.34;10628070;27;20141;-51
2021/03/08 02:44:59;;;;;;;2.90;0.70;;;;;;;-2.36;60.38;96838.91;10630991;27;20058;-51
2021/03/08 02:50:04;;;;;;;8.18;1.15;;;;;;;-2.32;60.82;96844.63;10627383;27;20472;-55
2021/03/08 02:55:09;;;;;;;3.88;0.88;;;;;;;-2.25;61.16;96850.13;10611551;27;20580;-53
2021/03/08 03:00:14;;;;;;;4.85;1.13;;;;;;;-2.21;61.54;96847.19;10630633;27;20043;-50
2021/03/08 03:05:18;;;;;;;2.88;0.65;;;;;;;-2.19;61.70;96831.63;10627756;27;20050;-50
2021/03/08 03:10:25;;;;;;;2.45;0.60;;;;;;;-2.14;61.62;96837.22;10626895;27;20043;-51
2021/03/08 03:15:27;;;;;;;2.67;0.68;;;;;;;-2.13;61.57;96836.28;10628215;27;20147;-52
2021/03/08 03:20:31;;;;;;;2.20;0.73;;;;;;;-2.15;61.67;96836.41;10626478;27;20051;-51
2021/03/08 03:25:32;;;;;;;;;;;;;;;-2.01;62.29;96840.44;10631742;27;20138;-51
2021/03/08 03:30:35;;;;;;;2.92;0.82;;;;;;;-1.96;62.26;96834.94;10626762;27;19975;-48
2021/03/08 03:35:38;;;;;;;3.67;0.70;;;;;;;-2.11;61.99;96834.41;10608261;27;20047;-48
2021/03/08 03:40:40;;;;;;;2.60;0.73;;;;;;;-2.12;61.69;96817.34;10626284;28;20133;-51
2021/03/08 03:45:42;;;;;;;3.83;0.88;;;;;;;-2.16;62.24;96819.31;10626160;28;20809;-49
2021/03/08 03:50:44;;;;;;;2.28;0.60;;;;;;;-2.08;62.08;96829.00;10625660;28;20221;-51
2021/03/08 03:55:46;;;;;;;2.45;0.70;;;;;;;-1.88;62.29;96841.13;10626138;28;20061;-51
2021/03/08 04:00:56;;;;;;;5.22;1.17;;;;;;;-1.76;62.44;96844.44;10625696;28;20046;-52
2021/03/08 04:06:00;;;;;;;2.50;0.70;;;;;;;-1.67;62.85;96840.31;10625159;28;20090;-51
2021/03/08 04:11:05;;;;;;;4.45;0.80;;;;;;;-1.77;62.70;96840.22;10607447;28;20487;-48
2021/03/08 04:16:08;;;;;;;5.15;1.23;;;;;;;-1.89;62.82;96836.06;10627054;28;20376;-64
2021/03/08 04:21:13;;;;;;;3.28;1.10;;;;;;;-2.10;62.74;96842.00;10627952;28;20061;-49
2021/03/08 04:26:18;;;;;;;3.00;1.00;;;;;;;-2.06;63.60;96847.75;10628958;28;20058;-51
2021/03/08 04:31:20;;;;;;;3.67;0.88;;;;;;;-1.98;63.50;96854.84;10625873;28;20055;-53
2021/03/08 04:36:23;;;;;;;3.70;1.17;;;;;;;-1.98;63.34;96860.78;10626411;28;20161;-48
2021/03/08 04:41:27;;;;;;;3.67;0.80;;;;;;;-2.03;63.43;96857.78;10625484;27;20107;-51
2021/03/08 04:46:28;;;;;;;;;;;;;;;-2.10;63.94;96878.03;10633223;27;20068;-52
2021/03/08 04:51:32;;;;;;;3.17;0.85;;;;;;;-2.16;64.27;96878.50;10636370;27;19924;-50
2021/03/08 04:56:34;;;;;;;3.30;0.90;;;;;;;-2.07;64.20;96892.41;10623595;27;20507;-49
2021/03/08 05:01:37;;;;;;;2.85;0.90;;;;;;;-2.00;64.52;96898.72;10633953;27;20093;-48
2021/03/08 05:06:41;;;;;;;3.47;0.90;;;;;;;-1.90;64.23;96909.94;10632199;27;20074;-52
2021/03/08 05:11:44;;;;;;;3.25;1.00;;;;;;;-1.75;64.96;96907.09;10631630;27;20101;-51
2021/03/08 05:16:48;;;;;;;1.73;0.50;;;;;;;-1.60;65.45;96923.88;10637313;27;20050;-51
2021/03/08 05:21:51;;;;;;;;;;;;;;;-1.38;66.35;96932.47;10637081;27;20070;-51
2021/03/08 05:26:54;;;;;;;2.17;0.90;;;;;;;-1.05;65.99;96944.34;10634609;27;19923;-57
2021/03/08 05:31:58;;;;;;;4.28;1.23;;;;;;;-1.01;66.16;96954.28;10631726;27;20506;-53
2021/03/08 05:37:02;;;;;;;3.50;1.00;;;;;;;-0.81;66.51;96960.38;10630732;27;20047;-52
2021/03/08 05:42:09;;;;;;;1.35;0.60;;;;;;;-0.57;66.73;96977.34;10631159;27;20483;-50
2021/03/08 05:47:35;;;;;;;4.20;1.05;;;;;;;-0.53;66.48;96989.84;10633667;27;20475;-52
2021/03/08 05:53:19;;;;;;;2.00;0.82;;;;;;;-0.41;66.95;96994.94;10632070;27;20372;-49
2021/03/08 05:58:32;;;;;;;3.42;0.80;;;;;;;-0.11;67.23;97014.78;10633238;27;20106;-51
2021/03/08 06:03:57;;;;;;;3.03;0.90;;;;;;;-0.10;66.29;97027.56;10629434;27;20487;-50
2021/03/08 06:09:23;;;;;;;;;;;;;;;-0.16;65.89;97046.16;10600209;27;20058;-49
2021/03/08 06:14:34;;;;;;;1.92;0.90;;;;;;;-0.24;65.90;97041.63;10628920;27;19963;-52
2021/03/08 06:19:37;;;;;;;3.40;1.08;;;;;;;-0.45;65.37;97063.25;10632834;27;20044;-51
2021/03/08 06:24:41;;;;;;;4.90;1.33;;;;;;;-0.59;65.06;97072.13;10630164;27;20051;-49
2021/03/08 06:29:44;;;;;;;3.72;1.10;;;;;;;-0.81;64.60;97088.53;10629962;27;20039;-49
2021/03/08 06:34:46;;;;;;;5.10;1.52;;;;;;;-0.90;66.08;97097.00;10631912;27;20095;-51
2021/03/08 06:39:48;;;;;;;3.28;0.95;;;;;;;-0.70;66.67;97101.38;10628820;27;20379;-50
2021/03/08 06:44:51;;;;;;;3.65;1.20;;;;;;;-0.48;65.65;97115.94;10609612;27;20069;-49
2021/03/08 06:49:55;;;;;;;4.55;1.30;;;;;;;-0.56;66.14;97124.28;10628243;27;20129;-52
2021/03/08 06:55:01;;;;;;;3.70;1.00;;;;;;;-0.60;66.75;97133.22;10627400;27;20385;-53
2021/03/08 07:00:06;;;;;;;4.18;1.42;;;;;;;-0.48;66.21;97147.72;10627541;27;20079;-56
2021/03/08 07:05:09;;;;;;;3.60;1.00;;;;;;;-0.47;66.19;97143.38;10626909;27;20075;-48
2021/03/08 07:10:13;;;;;;;3.45;1.20;;;;;;;-0.31;67.43;97166.16;10631165;27;20065;-51
2021/03/08 07:15:17;;;;;;;4.22;1.70;;;;;;;0.03;67.64;97166.81;10629202;27;20435;-51
2021/03/08 07:20:19;;;;;;;4.28;1.40;;;;;;;0.11;66.16;97171.34;10613536;27;20055;-51
2021/03/08 07:25:25;;;;;;;3.80;1.00;;;;;;;0.25;67.54;97176.19;10608671;27;20071;-54
2021/03/08 07:30:29;;;;;;;3.67;1.40;;;;;;;0.81;68.65;97183.50;10626476;27;20051;-52
2021/03/08 07:35:39;;;;;;;3.05;1.00;;;;;;;2.68;72.90;97179.75;10626113;27;20051;-53
2021/03/08 07:40:42;;;;;;;3.90;1.38;;;;;;;4.45;74.63;97179.06;10625952;28;20124;-50
2021/03/08 07:45:46;;;;;;;5.90;1.38;;;;;;;5.06;76.11;97188.47;10607964;28;20047;-49
2021/03/08 07:50:50;;;;;;;4.90;1.52;;;;;;;5.66;75.53;97199.66;10608060;28;20101;-51
2021/03/08 07:55:53;;;;;;;7.45;1.52;;;;;;;5.61;70.22;97205.38;10626279;28;20143;-50
2021/03/08 08:00:57;;;;;;;4.10;1.60;;;;;;;4.84;69.12;97215.88;10626479;28;20123;-50
2021/03/08 08:06:01;;;;;;;5.15;1.40;;;;;;;4.87;68.66;97227.78;10625870;28;20548;-49
2021/03/08 08:11:05;;;;;;;4.00;1.50;;;;;;;5.54;71.00;97233.88;10607895;28;20119;-50
2021/03/08 08:16:08;;;;;;;;;;;;;;;5.64;71.41;97245.94;10625888;27;20096;-52
2021/03/08 08:21:14;;;;;;;7.55;1.80;;;;;;;5.25;68.49;97249.88;10632862;27;19923;-50
2021/03/08 08:26:18;;;;;;;4.13;1.70;;;;;;;5.64;68.62;97256.38;10632713;27;20047;-49
2021/03/08 08:31:21;;;;;;;4.28;1.27;;;;;;;5.33;66.83;97264.75;10615525;27;20043;-51
2021/03/08 08:36:25;;;;;;;4.13;1.33;;;;;;;4.77;66.67;97286.91;10632956;27;20047;-53
2021/03/08 08:41:28;;;;;;;5.93;1.52;;;;;;;4.44;65.35;97294.50;10632387;27;20481;-51
2021/03/08 08:46:30;;;;;;;4.23;1.40;;;;;;;3.89;65.73;97310.28;10632250;27;20460;-48
2021/03/08 08:51:48;;;;;;;3.90;1.30;;;;;;;3.34;65.75;97318.91;10632242;27;20059;-51
2021/03/08 08:56:49;;;;;;;4.65;1.40;;;;;;;2.78;64.92;97337.13;10630955;27;20384;-49
2021/03/08 09:02:29;;;;;;;3.90;1.30;;;;;;;2.70;66.05;97336.03;10632976;27;20051;-51
2021/03/08 09:07:30;;;;;;;5.97;2.05;;;;;;;2.68;66.42;97353.53;10636445;27;20080;-53
2021/03/08 09:12:33;;;;;;;4.38;1.40;;;;;;;2.66;65.78;97365.00;10632185;27;20065;-53
2021/03/08 09:17:44;;;;;;;5.45;1.70;;;;;;;2.47;66.11;97376.22;10630989;27;20047;-52
2021/03/08 09:22:49;;;;;;;3.30;1.35;;;;;;;2.33;66.17;97390.38;10631587;27;20066;-50
2021/03/08 09:28:02;;;;;;;3.78;1.23;;;;;;;2.25;65.40;97395.44;10631010;27;20558;-49
2021/03/08 09:33:08;;;;;;;4.32;1.35;;;;;;;1.90;65.88;97401.09;10612694;27;20051;-52
2021/03/08 09:38:11;;;;;;;4.13;0.80;;;;;;;2.39;68.02;97409.78;10630239;27;20495;-50
2021/03/08 09:43:24;;;;;;;5.93;1.60;;;;;;;2.88;68.95;97415.78;10614403;27;20054;-50
2021/03/08 09:48:26;;;;;;;3.35;1.23;;;;;;;3.63;70.02;97408.88;10630572;27;20049;-53
2021/03/08 09:53:32;;;;;;;4.38;1.40;;;;;;;4.49;69.86;97419.72;10629971;27;20055;-52
2021/03/08 09:58:34;;;;;;;6.22;1.42;;;;;;;4.44;69.38;97427.19;10629966;27;20043;-52
2021/03/08 10:03:36;;;;;;;7.10;2.05;;;;;;;4.01;68.29;97452.06;10629498;27;20043;-53
2021/03/08 10:08:38;;;;;;;5.03;1.45;;;;;;;3.76;67.15;97450.16;10628964;27;20039;-51
2021/03/08 10:13:40;;;;;;;4.70;2.00;;;;;;;3.27;66.79;97459.84;10628953;27;20047;-51
2021/03/08 10:18:42;;;;;;;4.13;1.23;;;;;;;3.26;67.33;97468.59;10628499;27;20142;-52
2021/03/08 10:23:44;;;;;;;2.58;0.90;;;;;;;3.00;66.16;97487.34;10585017;28;20066;-53
2021/03/08 10:28:49;;;;;;;4.85;1.20;;;;;;;2.53;65.44;97474.22;10585851;28;20134;-52
2021/03/08 10:33:54;;;;;;;4.07;1.20;;;;;;;2.17;65.47;97484.25;10585841;28;20052;-49
2021/03/08 10:38:58;;;;;;;4.28;1.63;;;;;;;1.95;65.43;97503.41;10586064;28;20108;-49
2021/03/08 10:44:01;;;;;;;3.83;1.20;;;;;;;1.97;65.75;97498.91;10585065;28;20480;-49
2021/03/08 10:49:05;;;;;;;5.57;1.30;;;;;;;2.00;65.32;97515.94;10585515;28;20050;-52
2021/03/08 10:54:08;;;;;;;5.90;1.33;;;;;;;2.16;66.01;97518.91;10585731;28;20134;-52
2021/03/08 10:59:22;;;;;;;3.63;1.30;;;;;;;2.09;65.90;97528.13;10589225;28;20130;-55
2021/03/08 11:04:25;;;;;;;;;;;;;;;2.11;65.93;97536.59;10588601;28;20044;-49
2021/03/08 11:09:28;;;;;;;7.32;2.72;;;;;;;1.87;64.91;97541.25;10566971;28;20309;-48
2021/03/08 11:14:45;;;;;;;7.07;2.50;;;;;;;1.79;66.10;97552.28;10586019;28;20086;-52
2021/03/08 11:19:47;;;;;;;6.30;1.85;;;;;;;1.79;64.67;97552.28;10583963;28;20043;-49
2021/03/08 11:24:50;;;;;;;4.22;1.33;;;;;;;1.57;64.97;97561.00;10584341;28;20142;-52
2021/03/08 11:29:57;;;;;;;;;;;;;;;1.81;66.72;97569.31;10584863;28;20073;-50
2021/03/08 11:35:00;;;;;;;5.13;1.80;;;;;;;2.16;66.93;97570.72;10585403;28;19924;-51
2021/03/08 11:40:06;;;;;;;4.47;1.42;;;;;;;2.47;67.13;97570.72;10584229;28;20116;-50
2021/03/08 11:45:09;;;;;;;5.28;1.45;;;;;;;2.45;66.95;97570.81;10583814;28;20066;-51
2021/03/08 11:50:12;;;;;;;4.38;1.10;;;;;;;2.39;67.41;97573.94;10583392;28;20043;-51
2021/03/08 11:55:15;;;;;;;4.28;1.40;;;;;;;2.58;67.76;97582.75;10590702;28;20061;-49
2021/03/08 12:00:19;;;;;;;2.70;0.90;;;;;;;2.75;65.93;97585.53;10590570;27;20049;-49
2021/03/08 12:05:22;;;;;;;4.85;1.23;;;;;;;2.41;65.46;97600.56;10591793;28;20086;-51
2021/03/08 12:10:24;;;;;;;3.72;1.13;;;;;;;2.19;64.84;97600.75;10592286;28;20036;-52
2021/03/08 12:15:26;;;;;;;4.57;1.27;;;;;;;1.88;65.31;97607.66;10593368;28;20054;-55
2021/03/08 12:20:28;;;;;;;4.60;1.27;;;;;;;1.63;65.23;97627.81;10608055;27;20057;-53
2021/03/08 12:25:30;;;;;;;11.15;3.45;;;;;;;1.85;65.78;97634.69;10617974;27;20046;-51
2021/03/08 12:30:31;;;;;;;5.97;2.28;;;;;;;1.78;65.39;97639.50;10635218;27;20047;-51
2021/03/08 12:35:34;;;;;;;5.00;1.70;;;;;;;1.79;65.04;97651.53;10633362;27;20446;-50
2021/03/08 12:40:36;;;;;;;4.00;1.35;;;;;;;1.55;64.37;97645.78;10614843;27;20076;-52
2021/03/08 12:45:37;;;;;;;3.35;0.85;;;;;;;1.24;65.11;97663.78;10617943;27;20489;-57
2021/03/08 12:50:40;;;;;;;4.00;1.08;;;;;;;1.03;64.62;97678.41;10634421;27;20563;-49
2021/03/08 12:55:42;;;;;;;3.90;1.25;;;;;;;0.86;64.65;97693.50;10631914;27;20058;-50
2021/03/08 13:00:44;;;;;;;2.80;0.98;;;;;;;0.66;65.46;97697.59;10614122;27;20058;-50
2021/03/08 13:05:47;;;;;;;3.25;1.30;;;;;;;0.70;64.86;97711.09;10613122;27;20099;-49
2021/03/08 13:10:48;;;;;;;4.22;1.30;;;;;;;0.59;64.36;97714.53;10614852;27;20133;-51
2021/03/08 13:15:50;;;;;;;3.80;1.20;;;;;;;0.58;65.03;97717.22;10632101;27;20047;-53
2021/03/08 13:20:53;;;;;;;7.15;1.30;;;;;;;0.48;64.88;97731.78;10615067;27;20196;-48
2021/03/08 13:25:54;;;;;;;3.10;1.38;;;;;;;0.41;65.31;97744.34;10630915;27;20131;-50
2021/03/08 13:30:56;;;;;;;4.50;1.15;;;;;;;0.06;63.42;97744.38;10631196;27;20047;-49
2021/03/08 13:35:59;;;;;;;7.10;1.58;;;;;;;-0.36;64.58;97759.50;10631143;27;20428;-49
2021/03/08 13:41:00;;;;;;;3.45;1.20;;;;;;;-0.47;65.32;97773.97;10630606;27;20075;-49
2021/03/08 13:46:02;;;;;;;3.53;1.25;;;;;;;-0.43;65.59;97766.00;10631941;27;20055;-53
2021/03/08 13:51:05;;;;;;;3.53;1.52;;;;;;;-0.61;64.15;97776.72;10630892;27;20047;-53
2021/03/08 13:56:06;;;;;;;2.97;1.42;;;;;;;-0.59;65.26;97777.41;10612475;27;20049;-50
2021/03/08 14:01:09;;;;;;;3.45;1.13;;;;;;;-0.51;65.11;97790.63;10629811;27;20090;-51
2021/03/08 14:06:12;;;;;;;3.70;1.02;;;;;;;-0.45;65.00;97801.44;10630317;27;20057;-49
2021/03/08 14:11:14;;;;;;;3.43;1.23;;;;;;;-0.44;65.14;97809.06;10611581;27;20139;-49
2021/03/08 14:16:15;;;;;;;2.75;1.00;;;;;;;-0.42;64.58;97803.81;10628736;27;20042;-48
2021/03/08 14:21:18;;;;;;;3.72;1.50;;;;;;;-0.62;64.03;97818.91;10611732;27;20559;-52
2021/03/08 14:26:20;;;;;;;4.13;1.48;;;;;;;-0.78;64.35;97820.91;10628760;27;20134;-49
2021/03/08 14:31:22;;;;;;;5.43;2.10;;;;;;;-0.99;65.03;97831.78;10614318;27;20055;-55
2021/03/08 14:36:25;;;;;;;7.22;2.78;;;;;;;-1.02;64.75;97849.22;10631170;27;20166;-49
2021/03/08 14:41:27;;;;;;;5.80;2.10;;;;;;;-1.08;64.38;97845.28;10627568;27;20050;-49
2021/03/08 14:46:28;;;;;;;6.05;2.05;;;;;;;-1.07;64.70;97849.53;10627577;27;20043;-49
2021/03/08 14:51:31;;;;;;;5.88;2.45;;;;;;;-1.33;64.04;97853.84;10629347;27;20119;-51
2021/03/08 14:56:33;;;;;;;6.82;2.13;;;;;;;-1.58;63.28;97846.06;10628281;27;20517;-48
2021/03/08 15:01:34;;;;;;;3.97;1.25;;;;;;;-1.87;62.65;97857.34;10632965;27;20047;-48
2021/03/08 15:06:37;;;;;;;4.38;1.73;;;;;;;-2.03;62.87;97873.84;10635703;27;20042;-50
2021/03/08 15:11:39;;;;;;;4.30;1.30;;;;;;;-2.14;62.96;97879.69;10609607;27;20051;-49
2021/03/08 15:16:40;;;;;;;3.97;1.63;;;;;;;-2.17;62.51;97891.00;10656000;27;20038;-48
2021/03/08 15:21:43;;;;;;;10.75;3.42;;;;;;;-2.27;62.26;97899.41;10668265;27;20115;-47
2021/03/08 15:26:45;;;;;;;4.63;1.92;;;;;;;-2.33;62.53;97911.72;10667810;27;20133;-48
2021/03/08 15:31:46;;;;;;;6.03;2.40;;;;;;;-2.33;63.33;97923.78;10647915;27;20117;-47
2021/03/08 15:36:49;;;;;;;4.75;1.80;;;;;;;-2.15;64.06;97929.53;10650438;27;20047;-51
2021/03/08 15:41:51;;;;;;;4.90;1.60;;;;;;;-1.96;64.63;97932.63;10667910;27;20084;-50
2021/03/08 15:46:53;;;;;;;6.07;2.20;;;;;;;-1.91;64.64;97942.63;10660923;27;20107;-51
2021/03/08 15:51:55;;;;;;;8.15;3.20;;;;;;;-1.90;65.37;97954.59;10664258;27;20054;-48
2021/03/08 15:56:57;;;;;;;5.80;1.85;;;;;;;-1.78;65.26;97963.31;10657184;27;20039;-51
2021/03/08 16:01:59;;;;;;;5.63;2.00;;;;;;;-1.80;65.38;97972.88;10638192;27;20114;-52
2021/03/08 16:07:02;;;;;;;6.57;2.10;;;;;;;-1.80;64.96;97976.25;10625896;28;20049;-52
2021/03/08 16:12:04;;;;;;;6.37;2.50;;;;;;;-1.99;64.37;97984.31;10625045;28;20076;-51
2021/03/08 16:17:05;;;;;;;5.97;2.47;;;;;;;-2.12;64.25;97988.56;10626627;28;20414;-54
2021/03/08 16:22:08;;;;;;;5.82;2.65;;;;;;;-2.18;64.61;97997.47;10633337;27;20215;-50
2021/03/08 16:27:10;;;;;;;6.80;2.50;;;;;;;-2.37;63.95;98007.22;10663986;27;20042;-50
2021/03/08 16:32:12;;;;;;;7.18;2.60;;;;;;;-2.57;63.46;98005.81;10668747;27;20046;-58
2021/03/08 16:37:14;;;;;;;7.53;3.00;;;;;;;-2.72;62.67;98017.84;10668918;27;20054;-50
2021/03/08 16:42:16;;;;;;;8.13;3.43;;;;;;;-2.87;62.40;98016.97;10674383;27;20207;-50
2021/03/08 16:47:18;;;;;;;5.88;2.70;;;;;;;-3.01;62.45;98022.91;10675676;27;20051;-51
2021/03/08 16:52:20;;;;;;;8.05;2.63;;;;;;;-3.09;62.41;98030.22;10656538;27;20429;-49
2021/03/08 16:57:26;;;;;;;6.33;2.53;;;;;;;-3.23;62.00;98035.34;10675596;27;20142;-48
2021/03/08 17:02:28;;;;;;;7.93;2.97;;;;;;;-3.23;63.47;98048.19;10674997;27;20042;-51
2021/03/08 17:07:32;;;;;;;8.60;2.65;;;;;;;-3.07;63.72;98053.28;10673881;27;20050;-50
2021/03/08 17:12:33;;;;;;;7.47;2.78;;;;;;;-2.92;63.91;98047.28;10673691;27;20047;-50
2021/03/08 17:17:35;;;;;;;5.53;2.28;;;;;;;-2.89;63.62;98052.25;10656062;27;20042;-49
2021/03/08 17:22:38;;;;;;;7.47;3.45;;;;;;;-2.86;63.69;98069.25;10672276;27;20390;-51
2021/03/08 17:27:40;;;;;;;7.78;3.75;;;;;;;-2.82;63.46;98074.13;10672680;27;20497;-52
2021/03/08 17:32:42;;;;;;;7.25;3.08;;;;;;;-2.93;63.66;98071.31;10673311;27;20070;-49
2021/03/08 17:37:44;;;;;;;7.78;2.67;;;;;;;-2.93;64.05;98076.47;10672060;27;20074;-49
2021/03/08 17:42:47;;;;;;;8.77;2.97;;;;;;;-2.90;63.87;98085.75;10672039;27;20039;-49
2021/03/08 17:47:49;;;;;;;7.97;3.60;;;;;;;-2.79;63.95;98088.56;10673677;27;20047;-58
2021/03/08 17:52:52;;;;;;;10.50;3.75;;;;;;;-2.73;64.00;98088.22;10679447;27;20129;-55
2021/03/08 17:57:54;;;;;;;9.43;3.35;;;;;;;-2.72;63.83;98096.75;10674380;27;20038;-50
2021/03/08 18:02:55;;;;;;;8.30;3.42;;;;;;;-2.68;63.97;98101.66;10665467;27;20050;-52
2021/03/08 18:07:58;;;;;;;7.05;3.33;;;;;;;-2.62;63.80;98111.59;10673526;27;20095;-48
2021/03/08 18:13:00;;;;;;;9.18;3.20;;;;;;;-2.58;63.51;98117.38;10673451;27;20146;-50
2021/03/08 18:18:01;;;;;;;12.43;4.63;;;;;;;-2.65;63.66;98118.63;10640587;27;20159;-51
2021/03/08 18:23:04;;;;;;;8.57;3.38;;;;;;;-2.56;64.00;98123.25;10628491;27;20145;-48
2021/03/08 18:28:06;;;;;;;9.13;4.13;;;;;;;-2.57;63.30;98129.31;10671012;27;20043;-48
2021/03/08 18:33:08;;;;;;;10.73;4.35;;;;;;;-2.57;63.78;98131.88;10670443;27;20501;-50
2021/03/08 18:38:11;;;;;;;8.95;3.63;;;;;;;-2.60;63.50;98140.59;10669764;27;20099;-51
2021/03/08 18:43:12;;;;;;;8.83;4.03;;;;;;;-2.80;63.34;98139.16;10669686;27;20050;-49
2021/03/08 18:48:15;;;;;;;10.43;4.43;;;;;;;-3.02;63.16;98154.97;10668104;27;20038;-48
2021/03/08 18:53:17;;;;;;;7.88;3.75;;;;;;;-3.14;63.36;98147.06;10669189;27;20043;-48
2021/03/08 18:58:19;;;;;;;8.10;3.38;;;;;;;-3.12;63.43;98152.97;10669153;27;20451;-50
2021/03/08 19:03:21;;;;;;;6.65;2.35;;;;;;;-3.21;62.96;98156.84;10663384;27;20483;-50
2021/03/08 19:08:24;;;;;;;6.30;2.75;;;;;;;-3.42;62.10;98145.97;10627005;27;20053;-53
2021/03/08 19:13:26;;;;;;;8.32;3.03;;;;;;;-3.64;62.15;98171.13;10628087;27;20046;-52
2021/03/08 19:18:28;;;;;;;8.98;3.33;;;;;;;-3.74;62.52;98173.34;10636480;27;20108;-50
2021/03/08 19:23:30;;;;;;;8.95;2.88;;;;;;;-3.81;62.07;98178.00;10650776;27;20051;-51
2021/03/08 19:28:33;;;;;;;9.38;3.30;;;;;;;-3.85;62.63;98189.31;10668363;27;20518;-49
2021/03/08 19:33:35;;;;;;;10.18;3.30;;;;;;;-3.88;62.38;98191.19;10668268;27;20058;-52
2021/03/08 19:38:37;;;;;;;8.60;3.10;;;;;;;-3.85;62.99;98189.31;10669200;27;20042;-52
2021/03/08 19:43:39;;;;;;;8.60;3.20;;;;;;;-3.87;61.87;98191.13;10669281;27;20043;-50
2021/03/08 19:48:41;;;;;;;9.45;4.00;;;;;;;-3.90;62.07;98191.28;10669129;27;20050;-51
2021/03/08 19:53:44;;;;;;;6.15;2.05;;;;;;;-3.81;63.16;98201.09;10667080;27;20519;-52
2021/03/08 19:58:46;;;;;;;5.90;2.70;;;;;;;-3.68;62.90;98196.16;10646477;27;20443;-48
2021/03/08 20:03:48;;;;;;;8.48;2.80;;;;;;;-3.60;63.01;98203.44;10639885;27;20114;-50
2021/03/08 20:08:50;;;;;;;7.10;1.85;;;;;;;-3.58;62.57;98209.34;10657269;27;20169;-52
2021/03/08 20:13:52;;;;;;;7.27;3.37;;;;;;;-3.53;63.05;98220.22;10659758;27;20458;-48
2021/03/08 20:18:54;;;;;;;9.55;3.33;;;;;;;-3.45;62.93;98219.81;10673539;27;20050;-50
2021/03/08 20:23:57;;;;;;;9.00;3.13;;;;;;;-3.31;63.39;98228.47;10671436;27;20068;-47
2021/03/08 20:28:58;;;;;;;7.88;3.70;;;;;;;-3.30;63.00;98226.72;10673410;27;20053;-50
2021/03/08 20:34:00;;;;;;;6.88;2.85;;;;;;;-3.29;62.58;98234.38;10671471;27;20140;-49
2021/03/08 20:39:04;;;;;;;5.38;2.25;;;;;;;-3.53;61.37;98233.06;10671324;27;20038;-50
2021/03/08 20:44:06;;;;;;;;;;;;;;;-3.75;61.68;98236.72;10675065;27;20051;-53
2021/03/08 20:49:07;;;;;;;5.78;2.35;;;;;;;-3.79;61.76;98250.63;10673836;27;19950;-50
2021/03/08 20:54:10;;;;;;;7.40;3.55;;;;;;;-3.81;62.22;98255.00;10671151;27;20047;-51
2021/03/08 20:59:12;;;;;;;6.97;3.30;;;;;;;-3.92;61.34;98254.72;10672489;27;20207;-52
2021/03/08 21:04:14;;;;;;;8.00;3.60;;;;;;;-4.13;61.18;98260.88;10673562;27;20352;-52
2021/03/08 21:09:16;;;;;;;9.40;3.35;;;;;;;-4.12;61.79;98258.25;10670764;27;20063;-52
2021/03/08 21:14:18;;;;;;;8.37;3.60;;;;;;;-3.97;62.04;98262.66;10671035;27;20162;-50
2021/03/08 21:19:20;;;;;;;8.70;3.38;;;;;;;-3.86;62.00;98259.53;10670631;27;20047;-53
2021/03/08 21:24:23;;;;;;;8.85;3.15;;;;;;;-3.78;62.28;98267.69;10653009;27;20474;-54
2021/03/08 21:29:25;;;;;;;5.68;2.30;;;;;;;-3.61;62.01;98260.88;10675006;27;20129;-53
2021/03/08 21:34:27;;;;;;;8.95;3.35;;;;;;;-3.49;62.06;98255.13;10673917;27;20133;-50
2021/03/08 21:39:29;;;;;;;8.75;3.45;;;;;;;-3.46;61.67;98267.81;10651489;27;20039;-50
2021/03/08 21:44:31;;;;;;;7.95;3.33;;;;;;;-3.52;61.79;98265.53;10669922;27;20069;-50
2021/03/08 21:49:33;;;;;;;10.38;4.20;;;;;;;-3.48;61.97;98274.75;10668569;27;20448;-50
2021/03/08 21:54:35;;;;;;;8.63;3.67;;;;;;;-3.45;61.89;98287.44;10668560;27;20091;-50
2021/03/08 21:59:39;;;;;;;5.88;2.45;;;;;;;-3.38;61.34;98299.09;10671089;27;20057;-49
2021/03/08 22:04:41;;;;;;;7.97;3.22;;;;;;;-3.41;60.70;98295.84;10667916;27;20042;-50
2021/03/08 22:09:44;;;;;;;7.55;2.72;;;;;;;-3.60;60.50;98295.91;10670730;27;20079;-51
2021/03/08 22:14:46;;;;;;;10.52;2.88;;;;;;;-3.71;60.31;98305.00;10652628;27;20057;-51
2021/03/08 22:19:48;;;;;;;6.65;2.90;;;;;;;-3.90;60.28;98306.00;10667830;27;20436;-49
2021/03/08 22:24:50;;;;;;;8.27;2.70;;;;;;;-4.07;60.44;98317.06;10667815;27;20053;-48
2021/03/08 22:29:52;;;;;;;7.68;2.58;;;;;;;-4.09;60.11;98324.84;10667234;27;20110;-48
2021/03/08 22:34:54;;;;;;;8.77;2.83;;;;;;;-4.13;59.84;98331.00;10667205;27;20059;-50
2021/03/08 22:39:56;;;;;;;5.50;2.35;;;;;;;-4.13;59.52;98327.63;10667218;27;20134;-48
2021/03/08 22:44:58;;;;;;;7.40;2.53;;;;;;;-4.32;58.81;98338.75;10667022;27;20056;-48
2021/03/08 22:49:59;;;;;;;7.82;2.97;;;;;;;-4.49;59.36;98347.22;10670304;27;20059;-51
2021/03/08 22:55:03;;;;;;;7.05;2.70;;;;;;;-4.55;58.65;98356.94;10674060;27;20057;-50
2021/03/08 23:00:09;;;;;;;7.10;2.70;;;;;;;-4.69;58.95;98352.41;10667627;27;20057;-51
2021/03/08 23:05:13;;;;;;;6.18;3.00;;;;;;;-4.85;58.54;98359.97;10650020;27;20074;-49
2021/03/08 23:10:18;;;;;;;7.90;2.97;;;;;;;-4.94;57.98;98370.63;10666256;27;20046;-51
2021/03/08 23:15:20;;;;;;;5.93;2.90;;;;;;;-5.07;57.72;98374.63;10668903;27;20076;-49
2021/03/08 23:20:23;;;;;;;8.48;3.30;;;;;;;-5.15;57.58;98377.50;10651126;27;20089;-51
2021/03/08 23:25:27;;;;;;;8.02;2.92;;;;;;;-5.19;56.87;98384.50;10647195;27;20046;-51
2021/03/08 23:30:31;;;;;;;6.50;3.38;;;;;;;-5.31;56.93;98390.13;10665893;27;20043;-48
2021/03/08 23:35:33;;;;;;;10.50;3.30;;;;;;;-5.41;57.29;98381.19;10664989;27;20042;-49
2021/03/08 23:40:36;;;;;;;6.47;2.90;;;;;;;-5.58;56.71;98390.34;10665484;27;20391;-52